createdAt,value
2018-12-04T00:00:40.848Z,96.10
2018-12-04T00:07:04.419Z,95.90
2018-12-04T00:10:11.941Z,96.00
2018-12-04T00:13:19.500Z,96.30
2018-12-04T00:16:27.056Z,96.40
2018-12-04T00:19:34.540Z,96.50
2018-12-04T00:22:51.942Z,96.50
2018-12-04T00:26:09.604Z,96.30
2018-12-04T00:29:17.459Z,96.50
2018-12-04T00:32:25.139Z,96.20
2018-12-04T00:35:32.621Z,96.20
2018-12-04T00:38:40.298Z,96.20
2018-12-04T00:41:48.132Z,96.00
2018-12-04T00:44:55.756Z,96.10
2018-12-04T00:48:13.153Z,96.20
2018-12-04T00:51:20.998Z,96.40
2018-12-04T00:54:28.485Z,96.30
2018-12-04T00:57:36.061Z,96.40
2018-12-04T01:00:43.619Z,96.50
2018-12-04T01:04:01.524Z,96.40
2018-12-04T01:07:09.540Z,96.20
2018-12-04T01:10:17.132Z,96.40
2018-12-04T01:13:34.431Z,96.40
2018-12-04T01:16:51.896Z,96.10
2018-12-04T01:20:10.752Z,96.10
2018-12-04T01:23:28.377Z,96.00
2018-12-04T01:26:45.815Z,96.10
2018-12-04T01:30:03.168Z,95.70
2018-12-04T01:33:20.549Z,95.70
2018-12-04T01:36:38.008Z,95.70
2018-12-04T01:39:55.404Z,95.70
2018-12-04T01:43:12.864Z,95.50
2018-12-04T01:46:30.206Z,95.60
2018-12-04T01:49:48.113Z,95.40
2018-12-04T01:53:05.540Z,95.40
2018-12-04T01:56:22.995Z,95.30
2018-12-04T01:59:40.403Z,95.10
2018-12-04T02:02:57.861Z,95.20
2018-12-04T02:06:15.292Z,95.30
2018-12-04T02:09:32.599Z,95.50
2018-12-04T02:12:50.240Z,95.30
2018-12-04T02:16:07.552Z,95.50
2018-12-04T02:19:25.280Z,95.20
2018-12-04T02:22:48.720Z,95.20
2018-12-04T02:26:06.537Z,95.40
2018-12-04T02:29:14.704Z,95.40
2018-12-04T02:32:22.331Z,95.20
2018-12-04T02:35:29.897Z,95.20
2018-12-04T02:38:37.420Z,95.10
2018-12-04T02:41:45.039Z,95.10
2018-12-04T02:44:52.658Z,95.20
2018-12-04T02:48:00.628Z,95.20
2018-12-04T02:51:08.314Z,95.30
2018-12-04T02:54:15.832Z,95.00
2018-12-04T02:57:33.154Z,95.30
2018-12-04T03:00:50.668Z,95.30
2018-12-04T03:04:08.017Z,95.40
2018-12-04T03:07:16.111Z,95.10
2018-12-04T03:10:34.276Z,94.90
2018-12-04T03:13:51.718Z,95.10
2018-12-04T03:16:59.285Z,95.00
2018-12-04T03:20:07.624Z,95.00
2018-12-04T03:23:25.096Z,95.00
2018-12-04T03:26:42.459Z,95.00
2018-12-04T03:29:59.903Z,95.10
2018-12-04T03:33:38.700Z,95.00
2018-12-04T03:36:46.516Z,94.80
2018-12-04T03:39:54.046Z,94.80
2018-12-04T03:43:02.037Z,94.90
2018-12-04T03:46:09.587Z,94.70
2018-12-04T03:49:17.276Z,95.10
2018-12-04T03:52:34.758Z,94.50
2018-12-04T03:55:52.053Z,94.40
2018-12-04T03:59:09.940Z,94.60
2018-12-04T04:02:17.805Z,94.60
2018-12-04T04:05:36.572Z,94.70
2018-12-04T04:08:44.084Z,94.60
2018-12-04T04:11:51.708Z,94.50
2018-12-04T04:15:10.401Z,94.60
2018-12-04T04:18:17.936Z,94.40
2018-12-04T04:21:35.527Z,94.40
2018-12-04T04:24:43.129Z,94.30
2018-12-04T04:27:50.705Z,94.10
2018-12-04T04:30:58.289Z,94.00
2018-12-04T04:34:05.777Z,93.90
2018-12-04T04:37:23.116Z,93.80
2018-12-04T04:40:40.665Z,93.50
2018-12-04T04:43:48.933Z,93.40
2018-12-04T04:46:56.414Z,93.30
2018-12-04T04:50:14.076Z,93.50
2018-12-04T04:53:31.424Z,93.30
2018-12-04T04:56:48.749Z,93.10
2018-12-04T05:00:07.444Z,93.20
2018-12-04T05:03:15.009Z,93.20
2018-12-04T05:06:32.445Z,93.20
2018-12-04T05:09:49.954Z,93.20
2018-12-04T05:12:57.573Z,93.40
2018-12-04T05:16:05.575Z,93.40
2018-12-04T05:19:13.084Z,93.40
2018-12-04T05:22:31.013Z,93.50
2018-12-04T05:25:38.595Z,93.50
2018-12-04T05:28:46.146Z,93.60
2018-12-04T05:31:53.814Z,93.80
2018-12-04T05:35:11.125Z,93.90
2018-12-04T05:38:28.568Z,93.80
2018-12-04T05:41:46.532Z,93.90
2018-12-04T05:44:54.108Z,93.80
2018-12-04T05:48:01.613Z,93.70
2018-12-04T05:51:09.196Z,93.50
2018-12-04T05:54:26.641Z,93.50
2018-12-04T05:57:44.068Z,93.60
2018-12-04T06:01:01.579Z,93.30
2018-12-04T06:04:09.108Z,93.20
2018-12-04T06:07:16.604Z,93.40
2018-12-04T06:10:24.184Z,93.30
2018-12-04T06:13:31.785Z,93.30
2018-12-04T06:16:49.311Z,93.40
2018-12-04T06:20:08.716Z,93.30
2018-12-04T06:23:16.300Z,93.40
2018-12-04T06:26:33.916Z,93.40
2018-12-04T06:29:52.388Z,93.20
2018-12-04T06:33:09.750Z,93.20
2018-12-04T06:36:18.024Z,93.00
2018-12-04T06:39:25.559Z,93.10
2018-12-04T06:42:43.295Z,93.00
2018-12-04T06:45:51.552Z,92.90
2018-12-04T06:48:59.744Z,92.80
2018-12-04T06:52:07.365Z,93.30
2018-12-04T06:55:15.301Z,93.60
2018-12-04T06:58:22.876Z,93.20
2018-12-04T07:01:31.145Z,93.60
2018-12-04T07:04:48.537Z,93.80
2018-12-04T07:08:06.207Z,94.30
2018-12-04T07:11:13.750Z,94.40
2018-12-04T07:14:21.302Z,94.10
2018-12-04T07:17:28.854Z,93.60
2018-12-04T07:20:36.409Z,93.50
2018-12-04T07:23:53.793Z,93.90
2018-12-04T07:27:11.228Z,93.50
2018-12-04T07:30:31.236Z,93.10
2018-12-04T07:33:38.741Z,92.80
2018-12-04T07:36:46.241Z,92.40
2018-12-04T07:39:54.212Z,92.70
2018-12-04T07:43:11.632Z,92.90
2018-12-04T07:46:29.205Z,93.00
2018-12-04T07:49:36.776Z,93.00
2018-12-04T07:52:44.364Z,92.70
2018-12-04T07:55:51.993Z,92.40
2018-12-04T07:58:59.597Z,92.50
2018-12-04T08:02:07.459Z,92.40
2018-12-04T08:05:14.945Z,92.40
2018-12-04T08:08:23.004Z,92.20
2018-12-04T08:11:30.592Z,91.90
2018-12-04T08:14:38.774Z,92.10
2018-12-04T08:17:46.432Z,92.00
2018-12-04T08:20:54.004Z,92.00
2018-12-04T08:24:01.716Z,92.20
2018-12-04T08:27:29.484Z,91.90
2018-12-04T08:30:37.081Z,91.60
2018-12-04T08:33:44.641Z,90.60
2018-12-04T08:36:52.125Z,91.10
2018-12-04T08:39:59.772Z,90.30
2018-12-04T08:43:07.225Z,89.90
2018-12-04T08:46:14.719Z,88.20
2018-12-04T08:49:22.516Z,89.20
2018-12-04T08:52:40.001Z,88.50
2018-12-04T08:55:57.313Z,87.90
2018-12-04T08:59:14.767Z,87.90
2018-12-04T09:02:32.184Z,87.80
2018-12-04T09:05:49.728Z,87.40
2018-12-04T09:09:11.052Z,87.70
2018-12-04T09:12:18.544Z,86.30
2018-12-04T09:15:26.389Z,86.00
2018-12-04T09:18:34.195Z,86.70
2018-12-04T09:21:41.982Z,87.30
2018-12-04T09:24:59.712Z,86.80
2018-12-04T09:28:17.677Z,87.50
2018-12-04T09:31:26.144Z,87.50
2018-12-04T09:34:33.617Z,88.10
2018-12-04T09:37:51.008Z,86.20
2018-12-04T09:41:08.409Z,84.70
2018-12-04T09:44:25.809Z,85.00
2018-12-04T09:47:43.228Z,85.10
2018-12-04T09:51:00.649Z,85.30
2018-12-04T09:54:18.095Z,83.70
2018-12-04T09:57:35.541Z,83.20
2018-12-04T10:00:52.923Z,83.20
2018-12-04T10:04:10.388Z,81.70
2018-12-04T10:07:28.333Z,79.70
2018-12-04T10:10:35.837Z,78.80
2018-12-04T10:13:43.343Z,77.90
2018-12-04T10:16:50.825Z,76.90
2018-12-04T10:20:12.348Z,75.90
2018-12-04T10:23:19.860Z,75.30
2018-12-04T10:26:27.824Z,74.70
2018-12-04T10:29:35.661Z,73.20
2018-12-04T10:32:45.176Z,72.30
2018-12-04T10:36:02.700Z,71.60
2018-12-04T10:39:20.072Z,71.00
2018-12-04T10:42:38.060Z,71.70
2018-12-04T10:45:45.536Z,72.60
2018-12-04T10:48:53.211Z,70.70
2018-12-04T10:52:00.712Z,71.20
2018-12-04T10:55:18.126Z,71.70
2018-12-04T10:58:35.577Z,71.90
2018-12-04T11:02:26.008Z,71.60
2018-12-04T11:05:33.659Z,69.80
2018-12-04T11:08:51.237Z,67.90
2018-12-04T11:12:12.224Z,67.80
2018-12-04T11:15:18.128Z,68.30
2018-12-04T11:18:25.679Z,72.50
2018-12-04T11:21:33.154Z,75.20
2018-12-04T11:24:40.666Z,77.20
2018-12-04T11:27:58.011Z,78.60
2018-12-04T11:31:15.416Z,79.90
2018-12-04T11:34:32.960Z,81.00
2018-12-04T11:37:50.288Z,80.40
2018-12-04T11:40:57.964Z,79.90
2018-12-04T11:44:05.905Z,80.10
2018-12-04T11:47:13.467Z,77.80
2018-12-04T11:50:31.036Z,76.00
2018-12-04T11:53:48.362Z,72.60
2018-12-04T11:57:05.778Z,71.50
2018-12-04T12:00:27.223Z,70.20
2018-12-04T12:03:34.808Z,70.50
2018-12-04T12:06:43.489Z,69.40
2018-12-04T12:09:52.057Z,69.50
2018-12-04T12:12:59.534Z,70.70
2018-12-04T12:16:07.076Z,71.10
2018-12-04T12:19:24.688Z,71.60
2018-12-04T12:22:42.012Z,72.90
2018-12-04T12:25:59.500Z,72.60
2018-12-04T12:29:16.917Z,72.50
2018-12-04T12:32:34.397Z,72.40
2018-12-04T12:35:51.751Z,72.80
2018-12-04T12:39:10.177Z,72.30
2018-12-04T12:42:17.656Z,69.50
2018-12-04T12:45:26.144Z,67.90
2018-12-04T12:48:33.681Z,65.30
2018-12-04T12:51:41.222Z,63.60
2018-12-04T12:54:58.625Z,62.80
2018-12-04T12:58:16.135Z,62.60
2018-12-04T13:01:33.472Z,62.80
2018-12-04T13:04:50.905Z,63.00
2018-12-04T13:08:08.860Z,63.00
2018-12-04T13:11:16.454Z,62.90
2018-12-04T13:14:23.961Z,62.70
2018-12-04T13:17:31.565Z,62.20
2018-12-04T13:20:48.989Z,62.50
2018-12-04T13:24:06.388Z,63.80
2018-12-04T13:27:23.896Z,64.90
2018-12-04T13:30:41.274Z,65.10
2018-12-04T13:34:04.665Z,64.80
2018-12-04T13:37:22.051Z,65.30
2018-12-04T13:40:39.508Z,65.00
2018-12-04T13:43:56.927Z,64.40
2018-12-04T13:47:14.336Z,64.30
2018-12-04T13:50:31.804Z,64.90
2018-12-04T13:53:49.213Z,62.70
2018-12-04T13:57:06.705Z,63.20
2018-12-04T14:00:24.024Z,64.20
2018-12-04T14:03:42.025Z,63.90
2018-12-04T14:06:50.661Z,63.70
2018-12-04T14:09:58.249Z,64.70
2018-12-04T14:13:05.912Z,65.80
2018-12-04T14:16:13.437Z,66.50
2018-12-04T14:19:21.203Z,67.00
2018-12-04T14:22:29.178Z,68.10
2018-12-04T14:25:47.044Z,68.60
2018-12-04T14:29:04.530Z,69.40
2018-12-04T14:32:21.937Z,70.50
2018-12-04T14:35:39.407Z,71.00
2018-12-04T14:38:56.778Z,71.80
2018-12-04T14:42:05.142Z,72.70
2018-12-04T14:45:13.345Z,73.60
2018-12-04T14:48:21.177Z,74.70
2018-12-04T14:51:39.197Z,75.20
2018-12-04T14:54:46.848Z,75.80
2018-12-04T14:57:54.680Z,76.60
2018-12-04T15:01:12.522Z,77.20
2018-12-04T15:04:30.372Z,77.10
2018-12-04T15:07:38.794Z,77.60
2018-12-04T15:10:46.596Z,78.20
2018-12-04T15:13:54.505Z,78.50
2018-12-04T15:17:02.403Z,78.90
2018-12-04T15:20:10.661Z,79.40
2018-12-04T15:23:28.176Z,79.50
2018-12-04T15:26:35.873Z,79.30
2018-12-04T15:29:43.760Z,79.60
2018-12-04T15:33:02.547Z,79.70
2018-12-04T15:36:10.528Z,79.90
2018-12-04T15:39:18.690Z,79.80
2018-12-04T15:42:26.540Z,79.50
2018-12-04T15:45:34.036Z,79.60
2018-12-04T15:48:41.529Z,80.40
2018-12-04T15:51:59.155Z,80.70
2018-12-04T15:55:17.336Z,81.20
2018-12-04T15:58:35.072Z,83.00
2018-12-04T16:01:43.101Z,84.70
2018-12-04T16:04:50.668Z,85.70
2018-12-04T16:08:08.611Z,86.10
2018-12-04T16:11:16.208Z,86.30
2018-12-04T16:14:23.708Z,87.30
2018-12-04T16:17:31.259Z,87.30
2018-12-04T16:20:48.828Z,88.20
2018-12-04T16:24:06.669Z,88.10
2018-12-04T16:27:14.204Z,88.20
2018-12-04T16:30:24.214Z,88.00
2018-12-04T16:33:31.673Z,87.90
2018-12-04T16:36:39.217Z,88.10
2018-12-04T16:39:46.811Z,88.80
2018-12-04T16:43:04.532Z,88.70
2018-12-04T16:46:21.993Z,88.50
2018-12-04T16:49:39.395Z,88.10
2018-12-04T16:53:02.792Z,87.60
2018-12-04T16:56:20.227Z,87.60
2018-12-04T16:59:37.593Z,86.90
2018-12-04T17:02:55.052Z,87.20
2018-12-04T17:06:12.501Z,86.90
2018-12-04T17:09:29.900Z,87.20
2018-12-04T17:12:47.585Z,87.00
2018-12-04T17:15:56.106Z,86.90
2018-12-04T17:19:14.673Z,87.40
2018-12-04T17:22:22.176Z,87.40
2018-12-04T17:25:29.736Z,87.20
2018-12-04T17:28:47.157Z,87.70
2018-12-04T17:32:05.111Z,87.80
2018-12-04T17:35:13.088Z,87.80
2018-12-04T17:38:20.583Z,88.30
2018-12-04T17:41:38.652Z,89.00
2018-12-04T17:44:46.132Z,88.30
2018-12-04T17:47:53.652Z,88.70
2018-12-04T17:51:01.322Z,89.10
2018-12-04T17:54:21.217Z,88.80
2018-12-04T17:57:38.673Z,89.00
2018-12-04T18:00:56.114Z,88.70
2018-12-04T18:04:13.500Z,89.20
2018-12-04T18:07:30.869Z,89.10
2018-12-04T18:10:54.341Z,89.10
2018-12-04T18:14:11.893Z,89.20
2018-12-04T18:17:19.904Z,89.10
2018-12-04T18:20:27.384Z,88.90
2018-12-04T18:23:34.965Z,88.80
2018-12-04T18:26:52.649Z,88.50
2018-12-04T18:30:00.553Z,89.00
2018-12-04T18:33:08.205Z,89.00
2018-12-04T18:36:26.244Z,88.80
2018-12-04T18:39:34.225Z,89.00
2018-12-04T18:42:41.855Z,89.00
2018-12-04T18:45:59.264Z,89.60
2018-12-04T18:49:16.769Z,89.80
2018-12-04T18:52:24.688Z,90.00
2018-12-04T18:55:32.184Z,89.90
2018-12-04T18:58:40.567Z,90.20
2018-12-04T19:01:48.149Z,90.10
2018-12-04T19:04:55.770Z,90.20
2018-12-04T19:08:13.372Z,90.30
2018-12-04T19:11:21.123Z,90.40
2018-12-04T19:14:28.634Z,90.50
2018-12-04T19:17:36.264Z,90.60
2018-12-04T19:20:44.565Z,90.90
2018-12-04T19:23:52.189Z,91.10
2018-12-04T19:26:59.665Z,91.30
2018-12-04T19:30:17.678Z,91.40
2018-12-04T19:33:25.234Z,91.40
2018-12-04T19:36:32.713Z,91.50
2018-12-04T19:39:40.312Z,91.80
2018-12-04T19:42:47.670Z,91.90
2018-12-04T19:46:05.653Z,92.00
2018-12-04T19:49:13.185Z,91.90
2018-12-04T19:52:20.737Z,92.00
2018-12-04T19:55:28.692Z,92.20
2018-12-04T19:58:36.703Z,92.00
2018-12-04T20:01:44.347Z,92.10
2018-12-04T20:05:01.701Z,92.10
2018-12-04T20:08:09.490Z,92.00
2018-12-04T20:11:17.112Z,92.00
2018-12-04T20:14:24.604Z,92.20
2018-12-04T20:17:32.172Z,92.20
2018-12-04T20:20:49.532Z,92.10
2018-12-04T20:24:07.052Z,92.20
2018-12-04T20:27:24.572Z,92.30
2018-12-04T20:30:41.931Z,92.30
2018-12-04T20:33:59.376Z,92.40
2018-12-04T20:37:17.500Z,92.40
2018-12-04T20:40:31.386Z,92.40
2018-12-04T20:43:45.159Z,92.50
2018-12-04T20:50:08.789Z,92.80
2018-12-04T20:53:26.851Z,92.50
2018-12-04T20:56:34.430Z,92.40
2018-12-04T20:59:42.359Z,92.40
2018-12-04T21:02:50.073Z,92.30
2018-12-04T21:05:57.676Z,92.30
2018-12-04T21:09:10.913Z,92.10
2018-12-04T21:12:18.894Z,92.10
2018-12-04T21:15:26.645Z,92.20
2018-12-04T21:18:44.334Z,92.20
2018-12-04T21:21:52.154Z,92.20
2018-12-04T21:24:59.797Z,92.10
2018-12-04T21:28:24.903Z,92.00
2018-12-04T21:31:39.999Z,92.00
2018-12-04T21:35:55.899Z,92.00
2018-12-04T21:39:08.709Z,92.40
2018-12-04T21:42:35.196Z,92.00
2018-12-04T21:45:47.869Z,91.90
2018-12-04T21:48:55.637Z,91.90
2018-12-04T21:52:03.228Z,92.00
2018-12-04T21:55:12.071Z,91.80
2018-12-04T21:58:19.917Z,91.70
2018-12-04T22:01:27.532Z,91.70
2018-12-04T22:04:45.075Z,91.70
2018-12-04T22:07:52.682Z,91.90
2018-12-04T22:11:00.736Z,91.90
2018-12-04T22:14:18.724Z,92.00
2018-12-04T22:17:26.303Z,92.10
2018-12-04T22:20:35.176Z,92.20
2018-12-04T22:23:42.963Z,92.30
2018-12-04T22:27:00.546Z,92.30
2018-12-04T22:30:18.442Z,92.20
2018-12-04T22:33:26.245Z,92.30
2018-12-04T22:36:34.020Z,92.30
2018-12-04T22:39:51.671Z,92.50
2018-12-04T22:42:59.324Z,92.60
2018-12-04T22:46:06.866Z,92.40
2018-12-04T22:49:14.546Z,92.60
2018-12-04T22:52:32.421Z,92.50
2018-12-04T22:55:40.092Z,92.60
2018-12-04T22:58:47.669Z,92.50
2018-12-04T23:01:55.890Z,92.40
2018-12-04T23:05:04.764Z,92.50
2018-12-04T23:08:12.831Z,92.80
2018-12-04T23:11:30.787Z,92.90
2018-12-04T23:14:38.540Z,93.50
2018-12-04T23:17:46.369Z,93.00
2018-12-04T23:21:04.071Z,93.30
2018-12-04T23:24:11.696Z,93.50
2018-12-04T23:27:19.357Z,93.60
2018-12-04T23:30:27.097Z,93.80
2018-12-04T23:33:34.696Z,93.90
2018-12-04T23:36:42.201Z,93.60
2018-12-04T23:39:52.192Z,93.70
2018-12-04T23:42:59.896Z,93.60
2018-12-04T23:46:07.397Z,93.50
2018-12-04T23:49:14.957Z,93.40
2018-12-04T23:52:32.744Z,93.60
2018-12-04T23:55:40.274Z,93.60
2018-12-04T23:58:47.920Z,93.80
